Time;durP1;ratioP1;P1;durP2;ratioP2;P2;SDS_P1;SDS_P2;PMS_P1;PMS_P2;Temp;Humidity;BMP_temperature;BMP_pressure;BME280_temperature;BME280_humidity;BME280_pressure;Samples;Min_cycle;Max_cycle;Signal;HPM_P1;HPM_P2
2022/11/28 00:05:45;;;;;;;8.07;6.67;;;7.10;99.90;;;;;;2615946;54;20537;-76
2022/11/28 00:11:33;;;;;;;8.20;6.60;;;7.10;99.90;;;;;;2617119;54;20471;-76
2022/11/28 00:17:21;;;;;;;7.70;6.90;;;7.10;99.90;;;;;;2617132;54;20428;-76
2022/11/28 00:23:09;;;;;;;11.40;7.00;;;7.10;99.90;;;;;;2617116;54;20644;-76
2022/11/28 00:28:58;;;;;;;9.30;6.20;;;7.20;99.90;;;;;;2618095;54;20531;-77
2022/11/28 00:34:45;;;;;;;8.20;6.93;;;7.30;99.90;;;;;;2617110;54;20435;-74
2022/11/28 00:40:33;;;;;;;8.93;6.90;;;7.30;99.90;;;;;;2616941;54;20276;-76
2022/11/28 00:46:23;;;;;;;8.33;6.53;;;7.30;99.90;;;;;;2618219;39;20559;-75
2022/11/28 00:52:11;;;;;;;11.20;6.73;;;7.40;99.90;;;;;;2618017;39;20740;-76
2022/11/28 00:57:59;;;;;;;8.17;6.47;;;7.40;99.90;;;;;;2616918;39;20563;-76
2022/11/28 01:03:48;;;;;;;8.10;6.20;;;7.40;99.90;;;;;;2615096;54;20150;-75
2022/11/28 01:09:36;;;;;;;9.80;7.30;;;7.40;99.90;;;;;;2613116;54;20465;-77
2022/11/28 01:15:24;;;;;;;9.77;6.90;;;7.40;99.90;;;;;;2616424;54;20263;-79
2022/11/28 01:21:11;;;;;;;7.50;6.40;;;7.40;99.90;;;;;;2614203;54;20151;-76
2022/11/28 01:26:59;;;;;;;7.60;5.53;;;7.40;99.90;;;;;;2614627;54;20161;-78
2022/11/28 01:32:47;;;;;;;11.23;6.50;;;7.50;99.90;;;;;;2615674;54;20122;-80
2022/11/28 01:38:37;;;;;;;12.03;6.13;;;7.50;99.90;;;;;;2616695;54;20679;-79
2022/11/28 01:44:25;;;;;;;9.43;5.30;;;7.40;99.90;;;;;;2614754;54;20423;-78
2022/11/28 01:50:14;;;;;;;9.20;7.43;;;7.50;99.90;;;;;;2615901;54;20155;-78
2022/11/28 01:56:07;;;;;;;9.97;6.53;;;7.50;99.90;;;;;;2615962;54;20455;-79
2022/11/28 02:01:55;;;;;;;8.40;7.00;;;7.50;99.90;;;;;;2615696;39;20597;-78
2022/11/28 02:07:45;;;;;;;10.90;5.43;;;7.60;99.90;;;;;;2616510;39;20512;-78
2022/11/28 02:13:42;;;;;;;9.50;7.47;;;7.60;99.90;;;;;;2612200;54;20525;-78
2022/11/28 02:19:51;;;;;;;8.10;6.80;;;7.60;99.90;;;;;;2615277;46;20424;-76
2022/11/28 02:58:01;;;;;;;26.73;7.50;;;7.60;99.90;;;;;;2614597;54;20909;-80
2022/11/28 03:24:01;;;;;;;7.67;6.53;;;7.60;99.90;;;;;;2610563;54;20374;-79
2022/11/28 03:29:53;;;;;;;8.53;7.23;;;7.60;99.90;;;;;;2612929;39;20740;-78
2022/11/28 03:35:48;;;;;;;8.80;7.90;;;7.60;99.90;;;;;;2612838;54;20416;-77
2022/11/28 03:41:42;;;;;;;8.63;6.70;;;7.60;99.90;;;;;;2613167;39;20881;-78
2022/11/28 03:47:33;;;;;;;7.70;6.77;;;7.60;99.90;;;;;;2615275;54;20414;-75
2022/11/28 03:53:25;;;;;;;8.27;6.60;;;7.60;99.90;;;;;;2614097;54;20438;-76
2022/11/28 04:22:47;;;;;;;8.70;6.97;;;7.50;99.90;;;;;;2615101;54;20391;-77
2022/11/28 04:28:36;;;;;;;6.87;6.17;;;7.40;99.90;;;;;;2617115;54;20403;-76
2022/11/28 04:34:26;;;;;;;7.90;7.10;;;7.40;99.90;;;;;;2617186;39;20728;-75
2022/11/28 04:40:17;;;;;;;8.13;7.33;;;7.40;99.90;;;;;;2613690;54;20398;-75
2022/11/28 04:52:59;;;;;;;8.30;6.43;;;7.30;99.90;;;;;;2614098;54;20523;-75
2022/11/28 04:58:48;;;;;;;9.60;6.63;;;7.30;99.90;;;;;;2614734;54;21005;-74
2022/11/28 05:04:36;;;;;;;8.63;6.27;;;7.30;99.90;;;;;;2614255;54;20583;-75
2022/11/28 05:10:24;;;;;;;6.80;5.87;;;7.30;99.90;;;;;;2613586;54;20445;-75
2022/11/28 05:16:13;;;;;;;9.00;6.60;;;7.30;99.90;;;;;;2613918;54;20166;-75
2022/11/28 05:22:00;;;;;;;7.00;6.30;;;7.30;99.90;;;;;;2613280;39;20767;-77
2022/11/28 05:27:47;;;;;;;11.27;7.50;;;7.40;99.90;;;;;;2617417;46;20123;-75
2022/11/28 05:33:34;;;;;;;8.70;7.30;;;7.30;99.90;;;;;;2616277;54;20122;-75
2022/11/28 05:42:45;;;;;;;10.30;6.33;;;7.40;99.90;;;;;;2616586;54;20438;-75
2022/11/28 05:48:33;;;;;;;10.20;8.30;;;7.50;99.90;;;;;;2617466;39;20332;-75
2022/11/28 05:54:20;;;;;;;7.30;6.40;;;7.50;99.90;;;;;;2617856;39;20780;-75
2022/11/28 05:56:46;;;;;;;7.40;6.70;;;7.60;99.90;;;;;;2616432;54;20398;-75
2022/11/28 05:59:12;;;;;;;8.93;7.53;;;7.60;99.90;;;;;;2616753;47;20191;-79
2022/11/28 06:04:59;;;;;;;7.20;6.50;;;7.80;99.90;;;;;;2617354;54;20162;-76
2022/11/28 06:17:04;;;;;;;7.70;7.00;;;7.80;99.90;;;;;;2616378;54;20435;-76
2022/11/28 06:22:52;;;;;;;7.57;6.60;;;7.70;99.90;;;;;;2616121;54;20161;-75
2022/11/28 06:28:43;;;;;;;9.30;6.83;;;7.70;99.90;;;;;;2616882;54;20154;-76
2022/11/28 06:34:31;;;;;;;8.70;6.87;;;7.70;99.90;;;;;;2617057;54;20387;-77
2022/11/28 06:40:19;;;;;;;10.50;7.70;;;7.70;99.90;;;;;;2615682;54;20451;-76
2022/11/28 06:46:11;;;;;;;8.60;7.53;;;7.70;99.90;;;;;;2615956;54;20122;-76
2022/11/28 06:51:59;;;;;;;9.93;8.63;;;7.60;99.90;;;;;;2615364;54;20378;-75
2022/11/28 06:57:47;;;;;;;8.50;7.50;;;7.60;99.90;;;;;;2616177;54;20677;-77
2022/11/28 07:03:36;;;;;;;9.00;7.73;;;7.50;99.90;;;;;;2616415;54;20134;-76
2022/11/28 07:09:23;;;;;;;11.20;7.17;;;7.50;99.90;;;;;;2615328;54;20984;-77
2022/11/28 07:15:12;;;;;;;8.80;8.00;;;7.50;99.90;;;;;;2616255;54;20208;-77
2022/11/28 07:21:00;;;;;;;9.47;8.40;;;7.60;99.90;;;;;;2615661;54;20461;-77
2022/11/28 07:26:50;;;;;;;12.00;8.23;;;7.70;99.90;;;;;;2616117;54;20383;-77
2022/11/28 07:32:41;;;;;;;9.60;8.20;;;7.70;99.90;;;;;;2615558;54;20417;-75
2022/11/28 07:42:41;;;;;;;10.40;8.60;;;7.60;99.90;;;;;;2616339;54;20408;-76
2022/11/28 07:48:28;;;;;;;9.77;8.73;;;7.70;99.90;;;;;;2614350;54;20564;-76
2022/11/28 07:51:47;;;;;;;10.57;8.83;;;7.70;99.90;;;;;;2615305;47;20412;-76
2022/11/28 07:54:12;;;;;;;9.07;8.17;;;7.80;99.90;;;;;;2613920;47;20173;-79
2022/11/28 08:00:43;;;;;;;11.33;10.33;;;7.80;99.90;;;;;;2613416;54;20173;-81
2022/11/28 08:03:30;;;;;;;11.20;9.13;;;7.90;99.90;;;;;;2611835;54;20411;-81
2022/11/28 08:09:17;;;;;;;8.47;7.33;;;7.90;99.90;;;;;;2613940;39;20764;-79
2022/11/28 08:12:26;;;;;;;9.43;8.47;;;7.90;99.90;;;;;;2613236;54;20516;-80
2022/11/28 08:14:51;;;;;;;10.47;9.37;;;7.90;99.90;;;;;;2634889;36;20289;-80
2022/11/28 08:20:39;;;;;;;10.90;8.97;;;7.90;99.90;;;;;;2614894;54;20134;-81
2022/11/28 08:26:34;;;;;;;9.17;8.33;;;7.90;99.90;;;;;;2615769;54;20123;-82
2022/11/28 08:32:25;;;;;;;10.00;7.90;;;8.00;99.90;;;;;;2616074;54;20358;-82
2022/11/28 08:38:16;;;;;;;9.90;8.77;;;7.90;99.90;;;;;;2616942;54;20410;-80
2022/11/28 08:40:41;;;;;;;9.50;8.53;;;8.00;99.90;;;;;;2615876;47;20435;-80
2022/11/28 08:43:08;;;;;;;10.77;7.93;;;8.00;99.90;;;;;;2615391;39;20745;-81
2022/11/28 08:48:56;;;;;;;8.17;7.37;;;8.10;99.90;;;;;;2616724;54;20500;-82
2022/11/28 09:01:21;;;;;;;10.50;8.40;;;8.20;99.90;;;;;;2615392;54;20589;-78
2022/11/28 09:07:09;;;;;;;9.93;7.80;;;8.10;99.90;;;;;;2615646;54;20453;-76
2022/11/28 09:12:56;;;;;;;9.30;8.13;;;8.20;99.90;;;;;;2615241;54;20167;-78
2022/11/28 09:18:43;;;;;;;9.00;7.40;;;8.30;99.90;;;;;;2615682;54;20152;-77
2022/11/28 09:24:30;;;;;;;9.30;7.27;;;8.40;99.90;;;;;;2615493;39;20628;-78
2022/11/28 09:30:21;;;;;;;10.67;8.67;;;8.60;99.90;;;;;;2614715;54;20177;-77
2022/11/28 09:36:17;;;;;;;10.80;8.00;;;8.60;99.90;;;;;;2614297;54;20475;-78
2022/11/28 09:48:23;;;;;;;8.77;7.50;;;8.40;99.90;;;;;;2615225;54;20392;-77
2022/11/28 10:26:37;;;;;;;11.00;8.70;;;8.40;99.90;;;;;;2614561;46;20519;-78
2022/11/28 10:42:46;;;;;;;9.73;7.80;;;8.50;99.90;;;;;;2613281;54;20523;-82
2022/11/28 11:14:38;;;;;;;9.73;8.27;;;8.50;99.90;;;;;;2614387;54;20394;-82
2022/11/28 11:20:30;;;;;;;9.63;8.27;;;8.60;99.90;;;;;;2612146;54;20403;-82
2022/11/28 11:32:47;;;;;;;10.73;8.33;;;8.50;99.90;;;;;;2611940;54;20380;-80
2022/11/28 11:38:35;;;;;;;10.30;9.30;;;8.50;99.90;;;;;;2612242;54;20440;-80
2022/11/28 11:57:20;;;;;;;10.27;9.10;;;8.30;99.90;;;;;;2613494;54;20426;-78
2022/11/28 12:09:43;;;;;;;14.20;9.87;;;8.30;99.90;;;;;;2614292;54;20599;-78
2022/11/28 12:22:21;;;;;;;15.43;10.47;;;8.20;99.90;;;;;;2613582;54;20375;-78
2022/11/28 12:28:27;;;;;;;14.03;10.10;;;8.20;99.90;;;;;;2613729;54;20412;-79
2022/11/28 12:34:20;;;;;;;11.33;9.23;;;8.10;99.90;;;;;;2613039;46;20441;-79
2022/11/28 12:44:02;;;;;;;14.13;10.47;;;8.10;99.90;;;;;;2614825;54;20952;-77
2022/11/28 12:56:41;;;;;;;14.70;10.83;;;8.10;99.90;;;;;;2614471;54;20387;-78
2022/11/28 13:16:17;;;;;;;14.60;10.07;;;8.20;99.90;;;;;;2615288;39;20902;-77
2022/11/28 13:22:28;;;;;;;18.60;11.60;;;8.00;99.90;;;;;;2613526;54;20432;-79
2022/11/28 13:34:39;;;;;;;14.00;10.17;;;8.10;99.90;;;;;;2614450;54;20391;-79
2022/11/28 13:44:23;;;;;;;12.27;9.50;;;8.00;99.90;;;;;;2612290;54;20392;-77
2022/11/28 13:50:29;;;;;;;14.33;10.87;;;8.00;99.90;;;;;;2613540;39;20748;-78
2022/11/28 13:56:21;;;;;;;10.93;8.97;;;8.10;99.90;;;;;;2615411;54;20398;-80
2022/11/28 14:09:07;;;;;;;11.90;10.67;;;8.10;99.90;;;;;;2614478;54;20391;-79
2022/11/28 14:15:18;;;;;;;12.17;9.40;;;8.20;99.90;;;;;;2610169;39;20806;-77
2022/11/28 14:27:53;;;;;;;15.13;11.17;;;8.20;99.90;;;;;;2613863;54;20987;-78
2022/11/28 14:37:19;;;;;;;12.30;8.73;;;8.20;99.90;;;;;;2613349;39;20785;-79
2022/11/28 14:39:48;;;;;;;10.70;9.17;;;8.20;99.90;;;;;;2612744;54;20976;-77
2022/11/28 14:45:42;;;;;;;9.10;8.20;;;8.20;99.90;;;;;;2613394;54;20379;-79
2022/11/28 14:51:49;;;;;;;9.13;8.10;;;8.20;99.90;;;;;;2615965;54;20383;-79
2022/11/28 15:17:11;;;;;;;12.73;8.20;;;8.20;99.90;;;;;;2612657;54;20442;-78
2022/11/28 15:19:43;;;;;;;11.00;8.50;;;8.10;99.90;;;;;;2610835;47;20423;-78
2022/11/28 15:29:19;;;;;;;8.57;6.90;;;8.20;99.90;;;;;;2613277;54;20436;-77
2022/11/28 15:35:16;;;;;;;7.33;6.47;;;8.20;99.90;;;;;;2613710;54;20379;-77
2022/11/28 15:44:27;;;;;;;8.97;6.67;;;8.10;99.90;;;;;;2613563;54;20391;-77
2022/11/28 15:50:27;;;;;;;6.50;5.90;;;8.10;99.90;;;;;;2612760;54;20955;-77
2022/11/28 15:56:15;;;;;;;6.70;5.90;;;8.10;99.90;;;;;;2612164;54;20956;-78
2022/11/28 16:08:39;;;;;;;7.47;6.50;;;8.20;99.90;;;;;;2613938;54;20382;-79
2022/11/28 16:14:35;;;;;;;10.90;8.90;;;8.10;99.90;;;;;;2611607;54;20391;-80
2022/11/28 16:20:24;;;;;;;8.93;8.07;;;8.20;99.90;;;;;;2613176;54;20532;-79
2022/11/28 16:29:35;;;;;;;8.83;7.80;;;8.20;99.90;;;;;;2614298;54;20979;-78
2022/11/28 16:35:29;;;;;;;7.93;7.00;;;8.10;99.90;;;;;;2613779;54;20947;-77
2022/11/28 16:44:39;;;;;;;9.50;8.23;;;8.30;99.90;;;;;;2615456;54;20483;-78
2022/11/28 16:50:27;;;;;;;8.77;7.73;;;8.30;99.90;;;;;;2615066;54;20659;-79
2022/11/28 16:56:31;;;;;;;10.10;8.93;;;8.10;99.90;;;;;;2616531;39;20328;-79
2022/11/28 17:02:24;;;;;;;10.40;9.17;;;8.20;99.90;;;;;;2616067;54;20451;-77
2022/11/28 17:08:11;;;;;;;13.70;10.00;;;8.20;99.90;;;;;;2616524;54;20431;-78
2022/11/28 17:13:59;;;;;;;18.90;15.00;;;8.10;99.90;;;;;;2615637;54;20203;-78
2022/11/28 17:19:48;;;;;;;15.33;10.23;;;8.20;99.90;;;;;;2616969;54;20150;-78
2022/11/28 17:25:36;;;;;;;12.47;9.73;;;8.20;99.90;;;;;;2614494;54;20419;-79
2022/11/28 17:31:24;;;;;;;12.80;10.53;;;8.20;99.90;;;;;;2616018;39;20542;-78
2022/11/28 17:37:11;;;;;;;13.37;10.80;;;8.30;99.90;;;;;;2616586;54;20138;-77
2022/11/28 17:42:48;;;;;;;15.93;12.57;;;8.20;99.90;;;;;;2615528;54;20153;-77
2022/11/28 17:48:36;;;;;;;12.73;10.37;;;8.20;99.90;;;;;;2615266;54;20375;-78
2022/11/28 17:51:02;;;;;;;18.47;12.30;;;8.20;99.90;;;;;;2616550;39;20860;-77
2022/11/28 17:53:29;;;;;;;17.53;12.80;;;8.20;99.90;;;;;;2615684;47;20199;-77
2022/11/28 17:59:19;;;;;;;14.53;11.63;;;8.20;99.90;;;;;;2616293;54;20922;-78
2022/11/28 18:05:07;;;;;;;16.27;12.43;;;8.30;99.90;;;;;;2614200;54;20403;-79
2022/11/28 18:11:07;;;;;;;21.83;12.20;;;8.30;99.90;;;;;;2613471;54;20396;-78
2022/11/28 18:16:55;;;;;;;14.87;12.80;;;8.30;99.90;;;;;;2613004;46;20428;-79
2022/11/28 18:22:43;;;;;;;15.93;13.47;;;8.30;99.90;;;;;;2612316;39;20794;-76
2022/11/28 18:28:31;;;;;;;19.47;15.20;;;8.40;99.90;;;;;;2612145;54;20170;-80
2022/11/28 18:34:18;;;;;;;19.63;15.60;;;8.50;99.90;;;;;;2612803;54;20553;-78
2022/11/28 18:40:06;;;;;;;17.57;15.27;;;8.40;99.90;;;;;;2611786;54;20243;-78
2022/11/28 18:45:53;;;;;;;20.80;16.07;;;8.50;99.90;;;;;;2610928;54;21016;-79
2022/11/28 18:51:40;;;;;;;23.83;16.40;;;8.60;99.90;;;;;;2611421;39;20639;-78
2022/11/28 18:57:31;;;;;;;23.50;17.03;;;8.60;99.90;;;;;;2612828;54;20415;-78
2022/11/28 19:03:18;;;;;;;23.07;19.33;;;8.60;99.90;;;;;;2612246;39;20939;-77
2022/11/28 19:09:10;;;;;;;32.13;20.67;;;8.60;99.90;;;;;;2612549;54;20130;-78
2022/11/28 19:14:58;;;;;;;26.17;18.10;;;8.60;99.90;;;;;;2613371;54;20411;-77
2022/11/28 19:18:01;;;;;;;23.60;18.30;;;8.70;99.90;;;;;;2614154;54;20424;-80
2022/11/28 19:20:26;;;;;;;24.03;17.27;;;8.70;99.90;;;;;;2613202;54;20293;-78
2022/11/28 19:26:17;;;;;;;25.23;17.90;;;8.50;99.90;;;;;;2612166;39;20691;-79
2022/11/28 19:32:05;;;;;;;25.27;17.97;;;8.60;99.90;;;;;;2612994;54;20418;-77
2022/11/28 19:37:52;;;;;;;26.83;18.07;;;8.50;99.90;;;;;;2613913;39;20486;-78
2022/11/28 19:43:41;;;;;;;22.00;17.50;;;8.60;99.90;;;;;;2611578;54;20769;-79
2022/11/28 19:49:29;;;;;;;23.00;17.53;;;8.70;99.90;;;;;;2613089;39;20778;-79
2022/11/28 19:55:17;;;;;;;24.20;17.37;;;8.60;99.90;;;;;;2610941;54;20674;-79
2022/11/28 20:07:31;;;;;;;32.93;20.20;;;8.80;99.90;;;;;;2611974;54;20412;-79
2022/11/28 20:13:19;;;;;;;41.10;26.23;;;8.80;99.90;;;;;;2612750;39;20445;-78
2022/11/28 20:19:07;;;;;;;32.50;24.37;;;8.80;99.90;;;;;;2613406;54;20655;-79
2022/11/28 20:24:54;;;;;;;34.10;24.57;;;8.80;99.90;;;;;;2613296;54;20420;-78
2022/11/28 20:30:42;;;;;;;32.43;20.33;;;8.70;99.90;;;;;;2614253;54;20196;-79
2022/11/28 20:36:30;;;;;;;35.27;23.10;;;8.70;99.90;;;;;;2613311;54;20134;-76
2022/11/28 20:42:19;;;;;;;32.80;21.13;;;8.70;99.90;;;;;;2613702;54;20541;-79
2022/11/28 20:48:06;;;;;;;39.43;28.50;;;8.70;99.90;;;;;;2612918;54;20399;-78
2022/11/28 20:53:56;;;;;;;35.43;23.07;;;8.70;99.90;;;;;;2613037;54;20130;-78
2022/11/28 20:59:44;;;;;;;29.30;22.60;;;8.70;99.90;;;;;;2613208;54;20390;-78
2022/11/28 21:05:34;;;;;;;29.13;20.90;;;8.80;99.90;;;;;;2615524;54;20130;-79
2022/11/28 21:11:23;;;;;;;34.17;21.73;;;8.90;99.90;;;;;;2614202;54;20382;-79
2022/11/28 21:17:11;;;;;;;33.47;22.10;;;8.90;99.90;;;;;;2615304;54;20395;-76
2022/11/28 21:22:59;;;;;;;36.73;20.90;;;8.80;99.90;;;;;;2614087;54;20130;-74
2022/11/28 21:28:49;;;;;;;31.17;19.90;;;8.90;99.90;;;;;;2611685;54;20251;-77
2022/11/28 21:34:37;;;;;;;28.20;20.50;;;8.80;99.90;;;;;;2614918;46;20444;-75
2022/11/28 21:44:39;;;;;;;30.17;22.27;;;8.90;99.90;;;;;;2615931;39;20780;-75
2022/11/28 21:50:26;;;;;;;34.87;21.37;;;9.00;99.90;;;;;;2615177;54;20925;-75
2022/11/28 21:56:17;;;;;;;35.10;21.90;;;9.10;99.90;;;;;;2614869;54;20130;-74
2022/11/28 22:02:05;;;;;;;31.40;21.10;;;9.10;99.90;;;;;;2614277;54;20408;-76
2022/11/28 22:07:53;;;;;;;29.47;19.67;;;9.00;99.90;;;;;;2614996;54;20134;-75
2022/11/28 22:13:44;;;;;;;34.03;23.30;;;9.00;99.90;;;;;;2615293;54;20134;-75
2022/11/28 22:19:31;;;;;;;26.87;20.77;;;9.00;99.90;;;;;;2615832;54;20370;-74
2022/11/28 22:25:19;;;;;;;35.10;19.63;;;9.00;99.90;;;;;;2615625;54;20134;-76
2022/11/28 22:31:15;;;;;;;31.83;22.77;;;9.00;99.90;;;;;;2615555;39;20545;-77
2022/11/28 22:37:03;;;;;;;38.97;22.10;;;9.00;99.90;;;;;;2615143;39;20862;-75
2022/11/28 22:40:09;;;;;;;43.90;26.30;;;9.00;99.90;;;;;;2613900;46;20495;-76
2022/11/28 22:42:34;;;;;;;40.83;25.00;;;9.00;99.90;;;;;;2614825;54;20158;-77
2022/11/28 22:48:22;;;;;;;44.30;26.30;;;9.10;99.90;;;;;;2615733;54;20648;-75
2022/11/28 22:54:11;;;;;;;53.80;31.00;;;9.10;99.90;;;;;;2616105;54;20927;-76
2022/11/28 22:59:59;;;;;;;43.43;26.50;;;9.10;99.90;;;;;;2615244;54;20422;-76
2022/11/28 23:05:47;;;;;;;51.90;29.03;;;9.10;99.90;;;;;;2615066;47;20165;-76
2022/11/28 23:11:36;;;;;;;51.17;29.30;;;9.10;99.90;;;;;;2614385;54;20713;-77
2022/11/28 23:17:24;;;;;;;44.77;28.30;;;9.10;99.90;;;;;;2614581;54;20932;-76
2022/11/28 23:23:12;;;;;;;58.90;31.20;;;9.10;99.90;;;;;;2615709;54;20130;-77
2022/11/28 23:29:02;;;;;;;60.60;30.40;;;9.10;99.90;;;;;;2615670;54;20732;-76
2022/11/28 23:34:50;;;;;;;50.37;30.23;;;9.10;99.90;;;;;;2614576;54;20371;-75
2022/11/28 23:44:37;;;;;;;48.33;28.50;;;9.10;99.90;;;;;;2612686;54;20399;-75
2022/11/28 23:47:03;;;;;;;56.17;30.20;;;9.10;99.90;;;;;;2611928;54;20509;-76
2022/11/28 23:49:29;;;;;;;61.23;32.13;;;9.10;99.90;;;;;;2613224;54;20953;-76
2022/11/28 23:55:17;;;;;;;43.53;26.50;;;9.20;99.90;;;;;;2615683;54;20138;-75
